createdAt,value
2023-01-17T00:01:16.259Z,3.70
2023-01-17T00:04:01.786Z,3.60
2023-01-17T00:06:48.402Z,3.60
2023-01-17T00:09:37.284Z,3.60
2023-01-17T00:12:05.862Z,3.60
2023-01-17T00:14:33.574Z,3.50
2023-01-17T00:17:01.875Z,3.50
2023-01-17T00:19:47.319Z,3.60
2023-01-17T00:22:44.481Z,3.60
2023-01-17T00:25:35.482Z,3.50
2023-01-17T00:28:02.491Z,3.30
2023-01-17T00:30:30.284Z,3.20
2023-01-17T00:32:57.709Z,3.30
2023-01-17T00:35:25.840Z,3.50
2023-01-17T00:38:05.175Z,3.50
2023-01-17T00:40:33.401Z,3.30
2023-01-17T00:43:22.081Z,3.20
2023-01-17T00:46:08.344Z,3.10
2023-01-17T00:48:54.611Z,3.20
2023-01-17T00:51:42.019Z,3.30
2023-01-17T00:54:28.068Z,3.10
2023-01-17T00:57:14.275Z,3.00
2023-01-17T00:59:59.798Z,3.10
2023-01-17T01:02:46.339Z,3.10
2023-01-17T01:05:33.799Z,3.20
2023-01-17T01:08:20.092Z,3.20
2023-01-17T01:11:06.961Z,3.10
2023-01-17T01:13:56.455Z,3.00
2023-01-17T01:16:42.553Z,3.00
2023-01-17T01:19:28.498Z,2.90
2023-01-17T01:22:13.980Z,3.00
2023-01-17T01:25:02.826Z,2.80
2023-01-17T01:27:48.371Z,2.90
2023-01-17T01:30:34.589Z,2.90
2023-01-17T01:33:20.436Z,2.80
2023-01-17T01:35:49.841Z,2.70
2023-01-17T01:38:21.101Z,2.70
2023-01-17T01:40:50.697Z,2.80
2023-01-17T01:43:21.350Z,2.90
2023-01-17T01:45:55.766Z,2.90
2023-01-17T01:48:38.830Z,2.80
2023-01-17T01:51:13.927Z,2.70
2023-01-17T01:53:48.585Z,2.80
2023-01-17T01:56:19.254Z,2.60
2023-01-17T01:58:50.908Z,2.70
2023-01-17T02:01:19.298Z,2.70
2023-01-17T02:03:47.772Z,2.60
2023-01-17T02:06:25.909Z,2.60
2023-01-17T02:08:53.345Z,2.70
2023-01-17T02:11:21.093Z,2.60
2023-01-17T02:13:51.124Z,2.50
2023-01-17T02:16:31.046Z,2.70
2023-01-17T02:19:38.831Z,2.70
2023-01-17T02:22:27.273Z,2.70
2023-01-17T02:25:02.716Z,2.70
2023-01-17T02:27:56.738Z,2.80
2023-01-17T02:30:35.816Z,2.90
2023-01-17T02:33:25.521Z,2.80
2023-01-17T02:36:10.265Z,2.80
2023-01-17T02:39:09.502Z,2.60
2023-01-17T02:41:51.589Z,2.70
2023-01-17T02:44:20.805Z,2.30
2023-01-17T02:46:54.016Z,2.40
2023-01-17T02:49:26.212Z,2.60
2023-01-17T02:52:16.269Z,2.50
2023-01-17T02:55:16.658Z,2.40
2023-01-17T02:58:13.328Z,2.20
2023-01-17T03:01:12.688Z,2.20
2023-01-17T03:04:06.465Z,2.40
2023-01-17T03:06:56.466Z,2.10
2023-01-17T03:09:25.577Z,2.10
2023-01-17T03:11:55.978Z,2.10
2023-01-17T03:14:22.943Z,2.20
2023-01-17T03:16:50.434Z,2.20
2023-01-17T03:19:17.527Z,2.20
2023-01-17T03:21:44.505Z,2.20
2023-01-17T03:24:20.697Z,2.20
2023-01-17T03:26:48.048Z,2.30
2023-01-17T03:29:16.738Z,2.30
2023-01-17T03:31:47.013Z,2.40
2023-01-17T03:34:14.605Z,2.50
2023-01-17T03:36:41.767Z,2.50
2023-01-17T03:39:08.796Z,2.50
2023-01-17T03:41:35.872Z,2.30
2023-01-17T03:44:02.777Z,2.40
2023-01-17T03:46:44.337Z,2.20
2023-01-17T03:49:19.899Z,2.20
2023-01-17T03:52:11.151Z,2.40
2023-01-17T03:57:33.893Z,2.40
2023-01-17T04:00:24.558Z,2.50
2023-01-17T04:02:51.615Z,2.40
2023-01-17T04:05:18.672Z,2.40
2023-01-17T04:07:48.831Z,2.30
2023-01-17T04:10:22.012Z,2.30
2023-01-17T04:12:49.121Z,2.30
2023-01-17T04:15:16.295Z,2.40
2023-01-17T04:17:43.821Z,2.20
2023-01-17T04:20:33.714Z,2.30
2023-01-17T04:23:00.889Z,2.40
2023-01-17T04:25:30.163Z,2.40
2023-01-17T04:27:58.708Z,2.40
2023-01-17T04:30:26.127Z,2.50
2023-01-17T04:32:53.394Z,2.40
2023-01-17T04:35:20.678Z,2.20
2023-01-17T04:37:47.689Z,2.30
2023-01-17T04:40:18.246Z,2.40
2023-01-17T04:42:45.597Z,2.40
2023-01-17T04:45:14.234Z,2.40
2023-01-17T04:47:41.415Z,2.50
2023-01-17T04:50:09.986Z,2.60
2023-01-17T04:52:37.163Z,2.60
2023-01-17T04:55:04.454Z,2.50
2023-01-17T04:57:31.616Z,2.50
2023-01-17T04:59:58.573Z,2.30
2023-01-17T05:02:25.558Z,2.40
2023-01-17T05:04:52.612Z,2.60
2023-01-17T05:07:19.688Z,2.70
2023-01-17T05:09:47.688Z,2.60
2023-01-17T05:12:14.482Z,2.60
2023-01-17T05:14:41.250Z,2.50
2023-01-17T05:17:08.297Z,2.40
2023-01-17T05:19:35.182Z,2.30
2023-01-17T05:22:04.205Z,2.20
2023-01-17T05:24:32.421Z,2.30
2023-01-17T05:27:03.927Z,2.30
2023-01-17T05:29:31.034Z,2.10
2023-01-17T05:31:58.069Z,2.00
2023-01-17T05:34:25.207Z,1.90
2023-01-17T05:36:52.427Z,1.80
2023-01-17T05:39:19.336Z,1.80
2023-01-17T05:41:46.430Z,1.80
2023-01-17T05:44:13.552Z,1.80
2023-01-17T05:46:40.646Z,1.80
2023-01-17T05:49:07.969Z,1.80
2023-01-17T05:51:37.806Z,1.70
2023-01-17T05:54:05.580Z,1.70
2023-01-17T05:56:33.248Z,1.80
2023-01-17T05:59:00.416Z,1.60
2023-01-17T06:01:27.761Z,1.60
2023-01-17T06:03:54.677Z,1.60
2023-01-17T06:06:22.407Z,1.60
2023-01-17T06:08:49.366Z,1.60
2023-01-17T06:11:16.280Z,1.60
2023-01-17T06:13:43.220Z,1.60
2023-01-17T06:16:10.229Z,1.60
2023-01-17T06:18:37.288Z,1.50
2023-01-17T06:21:09.005Z,1.50
2023-01-17T06:23:36.022Z,1.50
2023-01-17T06:26:04.620Z,1.40
2023-01-17T06:28:31.792Z,1.50
2023-01-17T06:31:00.009Z,1.60
2023-01-17T06:33:27.080Z,1.40
2023-01-17T06:35:54.893Z,1.50
2023-01-17T06:38:21.929Z,1.40
2023-01-17T06:40:49.113Z,1.60
2023-01-17T06:43:16.034Z,1.50
2023-01-17T06:45:43.049Z,1.50
2023-01-17T06:48:10.203Z,1.40
2023-01-17T06:50:38.100Z,1.30
2023-01-17T06:53:07.106Z,1.40
2023-01-17T06:55:35.016Z,1.50
2023-01-17T06:58:03.096Z,1.60
2023-01-17T07:00:31.524Z,1.40
2023-01-17T07:02:58.728Z,1.30
2023-01-17T07:05:27.453Z,1.40
2023-01-17T07:07:54.908Z,1.30
2023-01-17T07:10:22.161Z,1.40
2023-01-17T07:12:49.379Z,1.50
2023-01-17T07:15:16.375Z,1.40
2023-01-17T07:17:43.244Z,1.30
2023-01-17T07:20:10.532Z,1.20
2023-01-17T07:22:37.875Z,1.20
2023-01-17T07:25:05.334Z,1.40
2023-01-17T07:27:33.726Z,1.30
2023-01-17T07:30:01.071Z,1.40
2023-01-17T07:32:28.402Z,1.30
2023-01-17T07:34:57.750Z,1.50
2023-01-17T07:37:26.406Z,1.60
2023-01-17T07:39:54.754Z,1.50
2023-01-17T07:42:24.085Z,1.30
2023-01-17T07:44:52.169Z,1.10
2023-01-17T07:47:20.138Z,1.10
2023-01-17T07:49:47.645Z,1.10
2023-01-17T07:52:16.295Z,1.00
2023-01-17T07:54:44.479Z,1.00
2023-01-17T07:57:14.774Z,1.10
2023-01-17T07:59:41.608Z,1.10
2023-01-17T08:02:18.174Z,1.10
2023-01-17T08:04:46.737Z,1.30
2023-01-17T08:07:14.800Z,1.20
2023-01-17T08:09:49.738Z,1.20
2023-01-17T08:12:17.695Z,1.20
2023-01-17T08:14:45.114Z,1.60
2023-01-17T08:17:18.151Z,1.60
2023-01-17T08:19:45.200Z,1.50
2023-01-17T08:22:12.456Z,1.50
2023-01-17T08:24:39.367Z,1.50
2023-01-17T08:27:06.247Z,1.40
2023-01-17T08:29:33.243Z,1.40
2023-01-17T08:32:00.315Z,1.30
2023-01-17T08:34:27.265Z,1.60
2023-01-17T08:36:54.470Z,1.90
2023-01-17T08:39:22.018Z,1.90
2023-01-17T08:41:48.873Z,1.90
2023-01-17T08:44:15.971Z,1.90
2023-01-17T08:46:44.280Z,1.90
2023-01-17T08:49:11.942Z,2.00
2023-01-17T08:51:38.977Z,2.10
2023-01-17T08:54:06.325Z,2.10
2023-01-17T08:56:34.182Z,2.10
2023-01-17T08:59:03.136Z,2.00
2023-01-17T09:01:30.270Z,2.10
2023-01-17T09:03:57.730Z,2.30
2023-01-17T09:06:24.825Z,2.30
2023-01-17T09:08:54.990Z,2.30
2023-01-17T09:11:22.235Z,2.30
2023-01-17T09:13:49.263Z,2.40
2023-01-17T09:16:16.228Z,2.50
2023-01-17T09:18:43.316Z,2.50
2023-01-17T09:21:17.990Z,2.50
2023-01-17T09:23:45.666Z,2.70
2023-01-17T09:26:25.244Z,2.70
2023-01-17T09:28:52.821Z,2.80
2023-01-17T09:31:22.445Z,2.90
2023-01-17T09:33:51.120Z,2.90
2023-01-17T09:36:18.186Z,2.90
2023-01-17T09:38:45.415Z,2.90
2023-01-17T09:41:33.099Z,3.00
2023-01-17T09:44:15.089Z,3.00
2023-01-17T09:46:46.767Z,3.30
2023-01-17T09:49:32.440Z,3.40
2023-01-17T09:52:00.586Z,3.50
2023-01-17T09:54:35.111Z,3.60
2023-01-17T09:57:27.025Z,3.80
2023-01-17T10:00:21.096Z,3.90
2023-01-17T10:03:27.854Z,4.10
2023-01-17T10:06:27.112Z,4.20
2023-01-17T10:09:11.857Z,4.60
2023-01-17T10:12:09.190Z,4.80
2023-01-17T10:15:03.263Z,5.00
2023-01-17T10:17:53.256Z,5.30
2023-01-17T10:20:38.583Z,5.60
2023-01-17T10:23:44.153Z,5.80
2023-01-17T10:26:23.773Z,6.20
2023-01-17T10:28:53.077Z,6.10
2023-01-17T10:31:35.421Z,6.10
2023-01-17T10:34:17.195Z,6.40
2023-01-17T10:36:49.620Z,6.20
2023-01-17T10:39:22.048Z,6.60
2023-01-17T10:42:26.867Z,6.60
2023-01-17T10:45:04.209Z,6.80
2023-01-17T10:47:36.477Z,6.50
2023-01-17T10:50:05.277Z,6.50
2023-01-17T10:52:43.455Z,6.70
2023-01-17T10:55:13.206Z,7.40
2023-01-17T10:57:42.795Z,7.60
2023-01-17T11:00:34.565Z,7.80
2023-01-17T11:03:02.751Z,7.90
2023-01-17T11:05:32.723Z,7.90
2023-01-17T11:07:59.718Z,7.50
2023-01-17T11:10:54.277Z,7.20
2023-01-17T11:13:32.022Z,7.70
2023-01-17T11:16:06.259Z,7.10
2023-01-17T11:18:39.397Z,7.10
2023-01-17T11:21:17.130Z,7.20
2023-01-17T11:23:56.878Z,7.20
2023-01-17T11:26:34.573Z,7.50
2023-01-17T11:29:37.446Z,7.10
2023-01-17T11:32:22.654Z,7.30
2023-01-17T11:35:07.038Z,8.00
2023-01-17T11:37:35.307Z,8.30
2023-01-17T11:40:19.088Z,7.90
2023-01-17T11:42:46.159Z,7.60
2023-01-17T11:45:29.209Z,7.70
2023-01-17T11:48:08.378Z,7.70
2023-01-17T11:50:37.581Z,7.70
2023-01-17T11:53:24.368Z,8.10
2023-01-17T11:56:28.042Z,8.30
2023-01-17T11:59:16.500Z,8.30
2023-01-17T12:01:58.127Z,8.40
2023-01-17T12:04:41.562Z,8.40
2023-01-17T12:07:44.680Z,8.60
2023-01-17T12:10:32.649Z,8.40
2023-01-17T12:13:33.027Z,8.60
2023-01-17T12:16:24.874Z,8.60
2023-01-17T12:19:22.436Z,8.60
2023-01-17T12:22:01.321Z,8.70
2023-01-17T12:24:39.538Z,8.50
2023-01-17T12:27:19.355Z,8.70
2023-01-17T12:30:23.428Z,8.70
2023-01-17T12:33:21.526Z,9.20
2023-01-17T12:35:56.970Z,9.20
2023-01-17T12:38:33.392Z,9.30
2023-01-17T12:41:26.539Z,9.70
2023-01-17T12:43:59.786Z,9.50
2023-01-17T12:46:38.723Z,9.20
2023-01-17T12:49:32.333Z,9.60
2023-01-17T12:52:55.057Z,9.40
2023-01-17T12:55:40.469Z,9.70
2023-01-17T12:58:18.949Z,10.30
2023-01-17T13:00:51.547Z,10.20
2023-01-17T13:03:35.269Z,10.40
2023-01-17T13:06:03.842Z,10.20
2023-01-17T13:08:36.294Z,10.40
2023-01-17T13:11:09.552Z,10.20
2023-01-17T13:13:36.845Z,10.20
2023-01-17T13:16:21.833Z,10.20
2023-01-17T13:18:51.658Z,10.50
2023-01-17T13:21:29.660Z,10.50
2023-01-17T13:23:59.582Z,10.60
2023-01-17T13:26:29.583Z,10.30
2023-01-17T13:29:20.448Z,10.40
2023-01-17T13:32:05.624Z,10.30
2023-01-17T13:35:00.951Z,10.60
2023-01-17T13:37:58.544Z,10.30
2023-01-17T13:40:37.132Z,10.20
2023-01-17T13:43:14.512Z,9.80
2023-01-17T13:45:41.726Z,9.70
2023-01-17T13:48:31.527Z,9.70
2023-01-17T13:50:59.245Z,9.70
2023-01-17T13:53:35.080Z,10.10
2023-01-17T13:56:27.801Z,9.70
2023-01-17T13:59:03.072Z,9.40
2023-01-17T14:01:34.805Z,9.30
2023-01-17T14:04:07.843Z,9.30
2023-01-17T14:06:35.435Z,9.30
2023-01-17T14:09:08.097Z,8.90
2023-01-17T14:11:37.220Z,8.60
2023-01-17T14:14:41.080Z,8.80
2023-01-17T14:17:23.223Z,8.60
2023-01-17T14:19:51.168Z,8.40
2023-01-17T14:22:21.082Z,8.30
2023-01-17T14:25:11.051Z,8.10
2023-01-17T14:27:50.449Z,7.90
2023-01-17T14:30:18.139Z,7.90
2023-01-17T14:33:08.584Z,7.80
2023-01-17T14:35:37.421Z,7.60
2023-01-17T14:38:23.178Z,7.60
2023-01-17T14:41:04.731Z,7.80
2023-01-17T14:43:35.253Z,7.80
2023-01-17T14:46:06.616Z,7.80
2023-01-17T14:48:34.388Z,7.60
2023-01-17T14:51:01.933Z,7.40
2023-01-17T14:53:31.485Z,7.40
2023-01-17T14:56:01.753Z,7.40
2023-01-17T14:58:30.563Z,7.50
2023-01-17T15:01:03.599Z,7.30
2023-01-17T15:03:41.875Z,7.10
2023-01-17T15:06:18.887Z,7.30
2023-01-17T15:08:46.890Z,7.00
2023-01-17T15:11:35.516Z,7.00
2023-01-17T15:14:05.971Z,6.90
2023-01-17T15:16:38.235Z,6.70
2023-01-17T15:19:13.399Z,6.70
2023-01-17T15:21:43.407Z,6.70
2023-01-17T15:24:20.003Z,6.80
2023-01-17T15:26:47.690Z,6.50
2023-01-17T15:29:24.208Z,6.60
2023-01-17T15:32:03.782Z,6.60
2023-01-17T15:34:33.772Z,6.50
2023-01-17T15:37:19.875Z,6.30
2023-01-17T15:39:47.377Z,6.20
2023-01-17T15:42:25.250Z,6.00
2023-01-17T15:44:54.777Z,5.90
2023-01-17T15:47:28.193Z,5.80
2023-01-17T15:49:55.616Z,5.80
2023-01-17T15:52:22.721Z,5.50
2023-01-17T15:54:53.457Z,5.70
2023-01-17T15:57:37.050Z,5.60
2023-01-17T16:00:09.044Z,5.40
2023-01-17T16:02:43.652Z,5.50
2023-01-17T16:05:26.096Z,5.50
2023-01-17T16:07:56.742Z,5.20
2023-01-17T16:10:28.226Z,5.00
2023-01-17T16:12:56.243Z,4.80
2023-01-17T16:15:24.459Z,5.00
2023-01-17T16:18:14.909Z,5.10
2023-01-17T16:20:53.288Z,4.90
2023-01-17T16:23:20.545Z,4.90
2023-01-17T16:25:48.221Z,4.60
2023-01-17T16:28:15.843Z,4.40
2023-01-17T16:30:44.643Z,4.40
2023-01-17T16:33:15.286Z,4.50
2023-01-17T16:35:43.074Z,4.50
2023-01-17T16:38:19.809Z,4.60
2023-01-17T16:40:48.049Z,4.80
2023-01-17T16:43:18.590Z,4.80
2023-01-17T16:45:52.763Z,4.90
2023-01-17T16:48:20.669Z,4.80
2023-01-17T16:58:53.486Z,4.20
2023-01-17T17:01:22.752Z,4.40
2023-01-17T17:03:50.101Z,4.40
2023-01-17T17:06:17.094Z,4.40
2023-01-17T17:08:44.946Z,4.20
2023-01-17T17:11:18.146Z,4.10
2023-01-17T17:13:47.177Z,4.20
2023-01-17T17:16:26.526Z,4.20
2023-01-17T17:19:02.319Z,4.20
2023-01-17T17:21:31.011Z,4.40
2023-01-17T17:23:59.648Z,4.40
2023-01-17T17:26:30.867Z,4.50
2023-01-17T17:28:58.242Z,4.40
2023-01-17T17:31:25.192Z,4.40
2023-01-17T17:33:52.254Z,4.30
2023-01-17T17:36:19.311Z,4.40
2023-01-17T17:38:53.110Z,4.20
2023-01-17T17:41:22.363Z,4.20
2023-01-17T17:43:49.528Z,4.10
2023-01-17T17:46:16.550Z,4.20
2023-01-17T17:48:43.577Z,4.00
2023-01-17T17:51:22.910Z,4.10
2023-01-17T17:53:49.885Z,4.20
2023-01-17T17:56:16.895Z,4.10
2023-01-17T17:58:46.127Z,3.90
2023-01-17T18:01:13.568Z,3.80
2023-01-17T18:03:40.752Z,3.80
2023-01-17T18:06:10.212Z,3.80
2023-01-17T18:08:38.496Z,3.90
2023-01-17T18:11:11.384Z,3.90
2023-01-17T18:13:39.002Z,3.90
2023-01-17T18:16:09.264Z,4.00
2023-01-17T18:18:38.437Z,3.80
2023-01-17T18:21:28.619Z,3.80
2023-01-17T18:24:01.873Z,3.70
2023-01-17T18:26:31.730Z,3.70
2023-01-17T18:29:00.262Z,3.60
2023-01-17T18:31:28.324Z,3.60
2023-01-17T18:33:58.096Z,3.70
2023-01-17T18:36:26.523Z,3.80
2023-01-17T18:38:53.608Z,3.60
2023-01-17T18:41:32.393Z,3.60
2023-01-17T18:43:59.280Z,3.60
2023-01-17T18:46:27.004Z,3.60
2023-01-17T18:48:57.115Z,3.50
2023-01-17T18:51:25.226Z,3.40
2023-01-17T18:53:55.349Z,3.50
2023-01-17T18:56:23.884Z,3.40
2023-01-17T18:58:51.425Z,3.40
2023-01-17T19:01:19.977Z,3.40
2023-01-17T19:03:49.105Z,3.30
2023-01-17T19:06:20.026Z,3.40
2023-01-17T19:08:49.143Z,3.40
2023-01-17T19:11:16.112Z,3.30
2023-01-17T19:13:42.999Z,3.40
2023-01-17T19:16:15.499Z,3.30
2023-01-17T19:18:42.916Z,3.30
2023-01-17T19:21:13.070Z,3.30
2023-01-17T19:23:40.532Z,3.30
2023-01-17T19:26:08.925Z,3.20
2023-01-17T19:28:40.939Z,3.30
2023-01-17T19:31:10.213Z,3.20
2023-01-17T19:33:38.862Z,3.20
2023-01-17T19:36:09.168Z,3.40
2023-01-17T19:38:38.642Z,3.20
2023-01-17T19:41:14.772Z,3.20
2023-01-17T19:43:42.720Z,3.10
2023-01-17T19:46:10.748Z,3.10
2023-01-17T19:48:39.035Z,3.00
2023-01-17T19:51:14.399Z,2.90
2023-01-17T19:53:41.968Z,3.10
2023-01-17T19:56:17.135Z,3.10
2023-01-17T19:58:46.298Z,3.00
2023-01-17T20:01:14.887Z,3.10
2023-01-17T20:03:45.243Z,3.30
2023-01-17T20:06:15.326Z,3.10
2023-01-17T20:08:43.485Z,3.00
2023-01-17T20:11:14.840Z,3.20
2023-01-17T20:13:45.477Z,3.20
2023-01-17T20:16:14.541Z,3.30
2023-01-17T20:18:41.769Z,3.30
2023-01-17T20:21:14.710Z,3.40
2023-01-17T20:23:43.365Z,3.30
2023-01-17T20:26:11.989Z,3.20
2023-01-17T20:28:41.213Z,3.20
2023-01-17T20:31:16.978Z,3.30
2023-01-17T20:33:46.910Z,3.40
2023-01-17T20:36:15.712Z,3.30
2023-01-17T20:38:43.865Z,3.10
2023-01-17T20:41:22.880Z,3.00
2023-01-17T20:43:54.762Z,2.90
2023-01-17T20:46:24.733Z,3.00
2023-01-17T20:48:54.602Z,3.00
2023-01-17T20:51:23.310Z,2.90
2023-01-17T20:53:59.251Z,2.90
2023-01-17T20:56:30.045Z,3.00
2023-01-17T20:58:57.952Z,3.20
2023-01-17T21:01:25.214Z,3.10
2023-01-17T21:03:54.054Z,3.10
2023-01-17T21:06:23.325Z,3.10
2023-01-17T21:08:51.342Z,3.10
2023-01-17T21:11:23.588Z,3.00
2023-01-17T21:13:51.598Z,3.10
2023-01-17T21:16:21.363Z,3.10
2023-01-17T21:18:50.137Z,3.10
2023-01-17T21:21:23.011Z,3.00
2023-01-17T21:23:51.278Z,3.10
2023-01-17T21:26:21.198Z,3.30
2023-01-17T21:28:49.668Z,3.40
2023-01-17T21:31:25.844Z,3.30
2023-01-17T21:33:56.805Z,3.50
2023-01-17T21:36:27.479Z,3.40
2023-01-17T21:38:57.216Z,3.30
2023-01-17T21:41:28.972Z,3.10
2023-01-17T21:43:57.815Z,3.00
2023-01-17T21:46:25.379Z,3.00
2023-01-17T21:48:52.246Z,2.90
2023-01-17T21:51:19.886Z,2.80
2023-01-17T21:53:46.742Z,2.80
2023-01-17T21:56:33.204Z,2.80
2023-01-17T21:59:01.052Z,2.60
2023-01-17T22:01:32.414Z,2.50
2023-01-17T22:04:02.885Z,2.50
2023-01-17T22:06:34.402Z,2.60
2023-01-17T22:09:01.744Z,2.60
2023-01-17T22:11:30.463Z,2.60
2023-01-17T22:13:59.204Z,2.60
2023-01-17T22:16:26.635Z,2.50
2023-01-17T22:18:53.625Z,2.60
2023-01-17T22:21:26.333Z,2.80
2023-01-17T22:23:55.437Z,2.80
2023-01-17T22:26:28.330Z,2.80
2023-01-17T22:28:55.804Z,2.70
2023-01-17T22:31:25.405Z,2.90
2023-01-17T22:33:57.829Z,2.80
2023-01-17T22:36:25.524Z,2.80
2023-01-17T22:38:52.744Z,2.90
2023-01-17T22:41:25.039Z,3.00
2023-01-17T22:43:53.847Z,3.00
2023-01-17T22:46:26.579Z,3.10
2023-01-17T22:48:55.340Z,3.10
2023-01-17T22:51:23.874Z,3.10
2023-01-17T22:53:53.568Z,3.00
2023-01-17T22:56:23.575Z,2.90
2023-01-17T22:58:50.970Z,2.80
2023-01-17T23:01:20.659Z,2.80
2023-01-17T23:03:52.409Z,2.90
2023-01-17T23:06:22.496Z,2.80
2023-01-17T23:08:51.915Z,2.80
2023-01-17T23:11:42.929Z,2.90
2023-01-17T23:14:12.591Z,2.80
2023-01-17T23:17:00.522Z,2.70
2023-01-17T23:19:31.017Z,2.70
2023-01-17T23:22:18.182Z,2.80
2023-01-17T23:25:08.652Z,2.70
2023-01-17T23:28:05.202Z,2.70
2023-01-17T23:30:38.136Z,2.70
2023-01-17T23:33:09.692Z,2.70
2023-01-17T23:35:41.709Z,2.80
2023-01-17T23:38:26.072Z,2.80
2023-01-17T23:41:17.331Z,2.90
2023-01-17T23:43:44.387Z,3.00
2023-01-17T23:46:12.564Z,3.10
2023-01-17T23:48:39.398Z,3.30
2023-01-17T23:51:09.345Z,3.10
2023-01-17T23:53:38.336Z,2.90
2023-01-17T23:56:18.701Z,2.90
2023-01-17T23:58:45.991Z,2.80
